Lovell Field
KCHA : now visible

Airfield :











YOU CAN JOIN US ON...

 
LOGIN :

Register | Disclaimer

   EN    FR    IT 

 









Legend :    VFR   Marginal VFR   IFR   Intensive IFR   Very Intensive IFR
Visi :
Ceiling :
>= 8 km
>= 3000ft
5 to 8 km
1000 to 3000 ft
1500m to 5 km
500 to 1000 ft
800 to 1500m
200 to 500 ft
< 800m
< 200 ft
Symbols :   Thunderstorms  Fog  Heavy snow  Heavy precipitations  Wind > 20 kt






- Airport Elevation : 683 ft
- IATA code : CHA


KCHA - Lovell Field

CURRENT METAR :
  • 261153Z 00000KT 1/4SM R02/P6000FT BCFG SCT002 SCT025 SCT250 14/13 A3016 RMK AO2 SFC VIS 7 SLP209 BCFG N AND S T01390128 10167 20133 53013 $

EXPIRED METARs :
  • 261148Z 00000KT 1/4SM R02/P6000FT BCFG SCT002 SCT025 SCT250 14/12 A3016 RMK AO2 SFC VIS 7 BCFG N $
  • 261053Z 00000KT 7SM FEW025 SCT250 14/12 A3015 RMK AO2 SLP203 T01390122 $
  • 260953Z 00000KT 7SM FEW025 SCT250 14/13 A3013 RMK AO2 SLP198 T01440133 $

TAF KCHA
Valid from the 26 at 12:00 until the 27 at 12:00 UTC


261129Z 2612/2712 00000KT P6SM FEW030 SCT250
FM261500 32004KT P6SM FEW045
FM270000 00000KT P6SM SKC
KZTL FIR / North America



MET'MAP, your aeronautical weather chart ! - Copyright ORBIFLY December 2007 - Disclaimer

ORBIFLY MET'MAP TEAM :

Programming & Development : Alexandra Zaïnal
Concept & original design : Baudouin d'Aumeries
Assistance for programming : Marc-Olivier Méhu
Technical & hardware support : Manuel Goepfert

Contact : metmap@orbifly.com




SOURCES & CREDITS :

   NOAA       Earth
Advisory